Rochester, Wisconsin
Current Conditions -  °F | °C
As of 12:35 AM on Wednesday 26 Nov 2014 (Local Time) from KBUU Reporting Station
Haze Haze  
Wind Chill:   Ceiling: Unl
Heat Index:   Visibility: 4mi
Dew Point:   Wind: 0mph
Humidity: 95%   Direction: NA
Pressure: 30.17"   Gusts: NA
Location:  42.74°N, 88.22°W
Report Text: KBUU 260635Z AUTO 00000KT 4SM BR CLR M14/M15 A3017 RMK AO2 T11391146
Loading
Personal Weather Stations






























Interactive Weather Map New forecast layout! Learn more

10-Day Weather Forecast

Advertisements
Track Severe Weather on mobile